sensor_id;sensor_type;location;lat;lon;timestamp;temperature;humidity
29403;DHT22;16382;59.942;30.472;2023-11-22T00:01:48;-3.90;68.30
29403;DHT22;16382;59.942;30.472;2023-11-22T00:04:16;-3.80;68.00
29403;DHT22;16382;59.942;30.472;2023-11-22T00:06:49;-3.80;67.70
29403;DHT22;16382;59.942;30.472;2023-11-22T00:09:17;-3.80;67.60
29403;DHT22;16382;59.942;30.472;2023-11-22T00:11:49;-3.80;67.50
29403;DHT22;16382;59.942;30.472;2023-11-22T00:14:17;-3.70;67.50
29403;DHT22;16382;59.942;30.472;2023-11-22T00:16:45;-3.70;67.30
29403;DHT22;16382;59.942;30.472;2023-11-22T00:19:13;-3.70;67.10
29403;DHT22;16382;59.942;30.472;2023-11-22T00:21:44;-3.70;67.00
29403;DHT22;16382;59.942;30.472;2023-11-22T00:24:13;-3.70;67.10
29403;DHT22;16382;59.942;30.472;2023-11-22T00:26:40;-3.80;67.10
29403;DHT22;16382;59.942;30.472;2023-11-22T00:29:08;-3.80;67.10
29403;DHT22;16382;59.942;30.472;2023-11-22T00:31:50;-3.80;67.10
29403;DHT22;16382;59.942;30.472;2023-11-22T00:34:18;-3.90;67.30
29403;DHT22;16382;59.942;30.472;2023-11-22T00:36:46;-3.90;67.50
29403;DHT22;16382;59.942;30.472;2023-11-22T00:39:16;-4.00;67.60
29403;DHT22;16382;59.942;30.472;2023-11-22T00:41:45;-4.00;67.80
29403;DHT22;16382;59.942;30.472;2023-11-22T00:47:05;-4.00;67.80
29403;DHT22;16382;59.942;30.472;2023-11-22T00:49:33;-4.10;68.20
29403;DHT22;16382;59.942;30.472;2023-11-22T00:52:01;-4.10;68.60
29403;DHT22;16382;59.942;30.472;2023-11-22T00:54:30;-4.10;68.70
29403;DHT22;16382;59.942;30.472;2023-11-22T00:56:58;-4.10;68.70
29403;DHT22;16382;59.942;30.472;2023-11-22T00:59:27;-4.20;68.70
29403;DHT22;16382;59.942;30.472;2023-11-22T01:01:54;-4.20;68.70
29403;DHT22;16382;59.942;30.472;2023-11-22T01:04:24;-4.20;68.90
29403;DHT22;16382;59.942;30.472;2023-11-22T01:06:51;-4.30;68.80
29403;DHT22;16382;59.942;30.472;2023-11-22T01:09:19;-4.30;69.20
29403;DHT22;16382;59.942;30.472;2023-11-22T01:11:47;-4.30;69.10
29403;DHT22;16382;59.942;30.472;2023-11-22T01:14:15;-4.30;69.10
29403;DHT22;16382;59.942;30.472;2023-11-22T01:16:42;-4.30;69.30
29403;DHT22;16382;59.942;30.472;2023-11-22T01:19:10;-4.30;69.20
29403;DHT22;16382;59.942;30.472;2023-11-22T01:21:39;-4.30;69.20
29403;DHT22;16382;59.942;30.472;2023-11-22T01:24:07;-4.40;69.20
29403;DHT22;16382;59.942;30.472;2023-11-22T01:26:35;-4.40;69.20
29403;DHT22;16382;59.942;30.472;2023-11-22T01:29:04;-4.40;69.20
29403;DHT22;16382;59.942;30.472;2023-11-22T01:31:32;-4.40;69.20
29403;DHT22;16382;59.942;30.472;2023-11-22T01:34:00;-4.40;69.30
29403;DHT22;16382;59.942;30.472;2023-11-22T01:36:30;-4.30;69.40
29403;DHT22;16382;59.942;30.472;2023-11-22T01:38:59;-4.30;69.40
29403;DHT22;16382;59.942;30.472;2023-11-22T01:41:29;-4.20;69.20
29403;DHT22;16382;59.942;30.472;2023-11-22T01:43:57;-4.10;69.00
29403;DHT22;16382;59.942;30.472;2023-11-22T01:46:25;-4.00;68.70
29403;DHT22;16382;59.942;30.472;2023-11-22T01:48:54;-3.90;68.50
29403;DHT22;16382;59.942;30.472;2023-11-22T01:51:22;-3.90;68.20
29403;DHT22;16382;59.942;30.472;2023-11-22T01:53:54;-3.80;68.00
29403;DHT22;16382;59.942;30.472;2023-11-22T01:56:26;-3.80;67.70
29403;DHT22;16382;59.942;30.472;2023-11-22T01:58:55;-3.70;67.60
29403;DHT22;16382;59.942;30.472;2023-11-22T02:01:26;-3.70;67.60
29403;DHT22;16382;59.942;30.472;2023-11-22T02:03:54;-3.60;67.40
29403;DHT22;16382;59.942;30.472;2023-11-22T02:06:22;-3.60;67.20
29403;DHT22;16382;59.942;30.472;2023-11-22T02:08:50;-3.60;67.30
29403;DHT22;16382;59.942;30.472;2023-11-22T02:11:19;-3.60;67.30
29403;DHT22;16382;59.942;30.472;2023-11-22T02:13:49;-3.50;67.90
29403;DHT22;16382;59.942;30.472;2023-11-22T02:16:17;-3.50;67.00
29403;DHT22;16382;59.942;30.472;2023-11-22T02:18:45;-3.40;66.90
29403;DHT22;16382;59.942;30.472;2023-11-22T02:21:35;-3.40;66.70
29403;DHT22;16382;59.942;30.472;2023-11-22T02:24:05;-3.40;66.90
29403;DHT22;16382;59.942;30.472;2023-11-22T02:26:34;-3.40;66.80
29403;DHT22;16382;59.942;30.472;2023-11-22T02:29:02;-3.40;66.80
29403;DHT22;16382;59.942;30.472;2023-11-22T02:31:30;-3.30;66.70
29403;DHT22;16382;59.942;30.472;2023-11-22T02:34:00;-3.30;67.30
29403;DHT22;16382;59.942;30.472;2023-11-22T02:36:27;-3.30;66.40
29403;DHT22;16382;59.942;30.472;2023-11-22T02:38:57;-3.30;66.50
29403;DHT22;16382;59.942;30.472;2023-11-22T02:41:26;-3.40;66.50
29403;DHT22;16382;59.942;30.472;2023-11-22T02:43:55;-3.40;66.30
29403;DHT22;16382;59.942;30.472;2023-11-22T02:46:23;-3.40;66.30
29403;DHT22;16382;59.942;30.472;2023-11-22T02:48:52;-3.40;66.10
29403;DHT22;16382;59.942;30.472;2023-11-22T02:51:21;-3.40;66.30
29403;DHT22;16382;59.942;30.472;2023-11-22T02:53:49;-3.50;66.40
29403;DHT22;16382;59.942;30.472;2023-11-22T02:56:17;-3.50;66.20
29403;DHT22;16382;59.942;30.472;2023-11-22T02:58:46;-3.50;66.10
29403;DHT22;16382;59.942;30.472;2023-11-22T03:01:14;-3.50;65.90
29403;DHT22;16382;59.942;30.472;2023-11-22T03:03:41;-3.50;66.00
29403;DHT22;16382;59.942;30.472;2023-11-22T03:06:09;-3.40;66.20
29403;DHT22;16382;59.942;30.472;2023-11-22T03:08:37;-3.40;66.10
29403;DHT22;16382;59.942;30.472;2023-11-22T03:11:04;-3.40;65.70
29403;DHT22;16382;59.942;30.472;2023-11-22T03:13:32;-3.40;65.30
29403;DHT22;16382;59.942;30.472;2023-11-22T03:16:01;-3.40;65.50
29403;DHT22;16382;59.942;30.472;2023-11-22T03:18:30;-3.40;65.20
29403;DHT22;16382;59.942;30.472;2023-11-22T03:20:59;-3.30;65.50
29403;DHT22;16382;59.942;30.472;2023-11-22T03:23:27;-3.30;65.30
29403;DHT22;16382;59.942;30.472;2023-11-22T03:25:55;-3.30;64.90
29403;DHT22;16382;59.942;30.472;2023-11-22T03:28:22;-3.30;65.70
29403;DHT22;16382;59.942;30.472;2023-11-22T03:30:50;-3.20;65.00
29403;DHT22;16382;59.942;30.472;2023-11-22T03:33:19;-3.20;64.40
29403;DHT22;16382;59.942;30.472;2023-11-22T03:35:46;-3.20;64.30
29403;DHT22;16382;59.942;30.472;2023-11-22T03:38:14;-3.20;64.60
29403;DHT22;16382;59.942;30.472;2023-11-22T03:40:43;-3.00;64.50
29403;DHT22;16382;59.942;30.472;2023-11-22T03:43:11;-3.10;64.10
29403;DHT22;16382;59.942;30.472;2023-11-22T03:45:42;-3.10;64.30
29403;DHT22;16382;59.942;30.472;2023-11-22T03:48:11;-3.10;63.80
29403;DHT22;16382;59.942;30.472;2023-11-22T03:50:40;-3.10;63.90
29403;DHT22;16382;59.942;30.472;2023-11-22T03:53:08;-3.10;64.30
29403;DHT22;16382;59.942;30.472;2023-11-22T03:55:36;-3.10;64.30
29403;DHT22;16382;59.942;30.472;2023-11-22T03:58:03;-3.10;63.80
29403;DHT22;16382;59.942;30.472;2023-11-22T04:00:31;-3.10;63.60
29403;DHT22;16382;59.942;30.472;2023-11-22T04:02:59;-3.10;63.50
29403;DHT22;16382;59.942;30.472;2023-11-22T04:05:28;-3.10;63.70
29403;DHT22;16382;59.942;30.472;2023-11-22T04:08:00;-3.10;63.70
29403;DHT22;16382;59.942;30.472;2023-11-22T04:10:31;-3.10;63.80
29403;DHT22;16382;59.942;30.472;2023-11-22T04:12:59;-3.10;63.30
29403;DHT22;16382;59.942;30.472;2023-11-22T04:15:27;-3.10;63.20
29403;DHT22;16382;59.942;30.472;2023-11-22T04:17:57;-3.10;62.90
29403;DHT22;16382;59.942;30.472;2023-11-22T04:20:33;-3.10;62.90
29403;DHT22;16382;59.942;30.472;2023-11-22T04:24:07;-3.10;62.50
29403;DHT22;16382;59.942;30.472;2023-11-22T04:26:35;-3.20;62.50
29403;DHT22;16382;59.942;30.472;2023-11-22T04:29:02;-3.20;62.50
29403;DHT22;16382;59.942;30.472;2023-11-22T04:31:31;-3.30;62.20
29403;DHT22;16382;59.942;30.472;2023-11-22T04:33:58;-3.30;62.10
29403;DHT22;16382;59.942;30.472;2023-11-22T04:36:26;-3.20;62.40
29403;DHT22;16382;59.942;30.472;2023-11-22T04:38:58;-3.20;62.30
29403;DHT22;16382;59.942;30.472;2023-11-22T04:41:27;-3.20;62.40
29403;DHT22;16382;59.942;30.472;2023-11-22T04:43:55;-3.10;62.10
29403;DHT22;16382;59.942;30.472;2023-11-22T04:46:23;-3.20;61.90
29403;DHT22;16382;59.942;30.472;2023-11-22T04:48:51;-3.20;61.80
29403;DHT22;16382;59.942;30.472;2023-11-22T04:51:19;-3.20;61.70
29403;DHT22;16382;59.942;30.472;2023-11-22T04:53:46;-3.20;61.70
29403;DHT22;16382;59.942;30.472;2023-11-22T04:56:14;-3.20;61.20
29403;DHT22;16382;59.942;30.472;2023-11-22T04:58:44;-3.30;61.30
29403;DHT22;16382;59.942;30.472;2023-11-22T05:01:13;-3.20;61.40
29403;DHT22;16382;59.942;30.472;2023-11-22T05:03:41;-3.20;61.40
29403;DHT22;16382;59.942;30.472;2023-11-22T05:06:09;-3.20;61.20
29403;DHT22;16382;59.942;30.472;2023-11-22T05:08:36;-3.20;60.90
29403;DHT22;16382;59.942;30.472;2023-11-22T05:11:05;-3.20;61.00
29403;DHT22;16382;59.942;30.472;2023-11-22T05:13:34;-3.30;61.10
29403;DHT22;16382;59.942;30.472;2023-11-22T05:16:03;-3.30;61.00
29403;DHT22;16382;59.942;30.472;2023-11-22T05:18:31;-3.30;61.20
29403;DHT22;16382;59.942;30.472;2023-11-22T05:20:59;-3.30;61.10
29403;DHT22;16382;59.942;30.472;2023-11-22T05:23:26;-3.30;61.10
29403;DHT22;16382;59.942;30.472;2023-11-22T05:25:54;-3.30;61.50
29403;DHT22;16382;59.942;30.472;2023-11-22T05:28:22;-3.30;61.30
29403;DHT22;16382;59.942;30.472;2023-11-22T05:30:49;-3.30;61.20
29403;DHT22;16382;59.942;30.472;2023-11-22T05:33:18;-3.30;61.10
29403;DHT22;16382;59.942;30.472;2023-11-22T05:35:46;-3.30;61.00
29403;DHT22;16382;59.942;30.472;2023-11-22T05:38:14;-3.30;61.30
29403;DHT22;16382;59.942;30.472;2023-11-22T05:40:42;-3.20;61.40
29403;DHT22;16382;59.942;30.472;2023-11-22T05:43:09;-3.20;61.90
29403;DHT22;16382;59.942;30.472;2023-11-22T05:45:36;-3.20;61.00
29403;DHT22;16382;59.942;30.472;2023-11-22T05:48:04;-3.20;60.70
29403;DHT22;16382;59.942;30.472;2023-11-22T05:50:33;-3.20;60.70
29403;DHT22;16382;59.942;30.472;2023-11-22T05:53:01;-3.10;60.50
29403;DHT22;16382;59.942;30.472;2023-11-22T05:55:30;-3.20;60.60
29403;DHT22;16382;59.942;30.472;2023-11-22T05:57:58;-3.10;60.60
29403;DHT22;16382;59.942;30.472;2023-11-22T06:00:25;-3.10;60.50
29403;DHT22;16382;59.942;30.472;2023-11-22T06:02:53;-3.20;60.70
29403;DHT22;16382;59.942;30.472;2023-11-22T06:05:21;-3.10;60.80
29403;DHT22;16382;59.942;30.472;2023-11-22T06:07:50;-3.10;60.40
29403;DHT22;16382;59.942;30.472;2023-11-22T06:10:18;-3.00;60.20
29403;DHT22;16382;59.942;30.472;2023-11-22T06:12:46;-3.00;60.20
29403;DHT22;16382;59.942;30.472;2023-11-22T06:15:14;-3.10;60.00
29403;DHT22;16382;59.942;30.472;2023-11-22T06:17:42;-3.00;59.80
29403;DHT22;16382;59.942;30.472;2023-11-22T06:20:10;-3.00;59.60
29403;DHT22;16382;59.942;30.472;2023-11-22T06:22:39;-3.00;60.10
29403;DHT22;16382;59.942;30.472;2023-11-22T06:25:10;-3.00;60.00
29403;DHT22;16382;59.942;30.472;2023-11-22T06:27:39;-2.90;59.90
29403;DHT22;16382;59.942;30.472;2023-11-22T06:30:07;-2.90;59.70
29403;DHT22;16382;59.942;30.472;2023-11-22T06:32:35;-2.90;59.50
29403;DHT22;16382;59.942;30.472;2023-11-22T06:35:03;-2.90;59.20
29403;DHT22;16382;59.942;30.472;2023-11-22T06:37:34;-2.90;58.90
29403;DHT22;16382;59.942;30.472;2023-11-22T06:40:02;-2.90;58.60
29403;DHT22;16382;59.942;30.472;2023-11-22T06:42:32;-2.90;58.40
29403;DHT22;16382;59.942;30.472;2023-11-22T06:45:00;-2.80;58.00
29403;DHT22;16382;59.942;30.472;2023-11-22T06:47:30;-2.80;58.10
29403;DHT22;16382;59.942;30.472;2023-11-22T06:49:58;-2.80;57.40
29403;DHT22;16382;59.942;30.472;2023-11-22T06:52:25;-2.70;57.30
29403;DHT22;16382;59.942;30.472;2023-11-22T06:54:53;-2.70;56.90
29403;DHT22;16382;59.942;30.472;2023-11-22T06:57:21;-2.60;56.30
29403;DHT22;16382;59.942;30.472;2023-11-22T06:59:56;-2.70;55.90
29403;DHT22;16382;59.942;30.472;2023-11-22T07:02:24;-2.70;55.90
29403;DHT22;16382;59.942;30.472;2023-11-22T07:04:51;-2.70;56.20
29403;DHT22;16382;59.942;30.472;2023-11-22T07:07:19;-2.70;56.70
29403;DHT22;16382;59.942;30.472;2023-11-22T07:09:47;-2.60;56.30
29403;DHT22;16382;59.942;30.472;2023-11-22T07:12:15;-2.50;56.00
29403;DHT22;16382;59.942;30.472;2023-11-22T07:14:45;-2.60;56.60
29403;DHT22;16382;59.942;30.472;2023-11-22T07:17:15;-2.50;55.90
29403;DHT22;16382;59.942;30.472;2023-11-22T07:19:44;-2.50;55.90
29403;DHT22;16382;59.942;30.472;2023-11-22T07:22:13;-2.60;55.80
29403;DHT22;16382;59.942;30.472;2023-11-22T07:24:43;-2.50;55.70
29403;DHT22;16382;59.942;30.472;2023-11-22T07:27:11;-2.60;55.80
29403;DHT22;16382;59.942;30.472;2023-11-22T07:29:40;-2.50;55.50
29403;DHT22;16382;59.942;30.472;2023-11-22T07:32:08;-2.50;55.30
29403;DHT22;16382;59.942;30.472;2023-11-22T07:34:39;-2.50;55.30
29403;DHT22;16382;59.942;30.472;2023-11-22T07:37:07;-2.50;55.30
29403;DHT22;16382;59.942;30.472;2023-11-22T07:39:36;-2.50;55.70
29403;DHT22;16382;59.942;30.472;2023-11-22T07:42:04;-2.50;55.60
29403;DHT22;16382;59.942;30.472;2023-11-22T07:44:34;-2.40;56.10
29403;DHT22;16382;59.942;30.472;2023-11-22T07:47:04;-2.40;56.70
29403;DHT22;16382;59.942;30.472;2023-11-22T07:49:34;-2.40;57.30
29403;DHT22;16382;59.942;30.472;2023-11-22T07:52:05;-2.40;57.20
29403;DHT22;16382;59.942;30.472;2023-11-22T07:54:33;-2.40;57.50
29403;DHT22;16382;59.942;30.472;2023-11-22T07:57:01;-2.60;57.70
29403;DHT22;16382;59.942;30.472;2023-11-22T07:59:29;-2.80;58.10
29403;DHT22;16382;59.942;30.472;2023-11-22T08:01:56;-2.90;58.30
29403;DHT22;16382;59.942;30.472;2023-11-22T08:04:24;-3.10;59.00
29403;DHT22;16382;59.942;30.472;2023-11-22T08:06:52;-3.10;59.30
29403;DHT22;16382;59.942;30.472;2023-11-22T08:09:24;-3.30;60.20
29403;DHT22;16382;59.942;30.472;2023-11-22T08:11:52;-3.40;59.70
29403;DHT22;16382;59.942;30.472;2023-11-22T08:14:19;-3.50;60.00
29403;DHT22;16382;59.942;30.472;2023-11-22T08:16:47;-3.50;60.50
29403;DHT22;16382;59.942;30.472;2023-11-22T08:19:15;-3.60;60.30
29403;DHT22;16382;59.942;30.472;2023-11-22T08:21:43;-3.60;60.40
29403;DHT22;16382;59.942;30.472;2023-11-22T08:24:10;-3.60;60.50
29403;DHT22;16382;59.942;30.472;2023-11-22T08:26:40;-3.50;60.30
29403;DHT22;16382;59.942;30.472;2023-11-22T08:29:07;-3.60;60.00
29403;DHT22;16382;59.942;30.472;2023-11-22T08:31:37;-3.50;60.00
29403;DHT22;16382;59.942;30.472;2023-11-22T08:34:04;-3.60;60.00
29403;DHT22;16382;59.942;30.472;2023-11-22T08:36:33;-3.60;60.50
29403;DHT22;16382;59.942;30.472;2023-11-22T08:39:01;-3.60;60.60
29403;DHT22;16382;59.942;30.472;2023-11-22T08:41:29;-3.60;60.70
29403;DHT22;16382;59.942;30.472;2023-11-22T08:43:59;-3.60;60.80
29403;DHT22;16382;59.942;30.472;2023-11-22T08:46:27;-3.60;60.60
29403;DHT22;16382;59.942;30.472;2023-11-22T08:48:58;-3.60;60.70
29403;DHT22;16382;59.942;30.472;2023-11-22T08:51:26;-3.60;60.70
29403;DHT22;16382;59.942;30.472;2023-11-22T08:53:53;-3.60;60.80
29403;DHT22;16382;59.942;30.472;2023-11-22T08:56:21;-3.40;61.20
29403;DHT22;16382;59.942;30.472;2023-11-22T08:58:50;-2.70;60.00
29403;DHT22;16382;59.942;30.472;2023-11-22T09:01:20;-2.40;58.70
29403;DHT22;16382;59.942;30.472;2023-11-22T09:03:47;-0.90;58.30
29403;DHT22;16382;59.942;30.472;2023-11-22T09:06:16;0.90;53.60
29403;DHT22;16382;59.942;30.472;2023-11-22T09:08:46;2.20;50.60
29403;DHT22;16382;59.942;30.472;2023-11-22T09:11:24;2.90;48.30
29403;DHT22;16382;59.942;30.472;2023-11-22T09:14:00;3.30;47.00
29403;DHT22;16382;59.942;30.472;2023-11-22T09:16:36;2.80;45.90
29403;DHT22;16382;59.942;30.472;2023-11-22T09:19:09;1.80;47.10
29403;DHT22;16382;59.942;30.472;2023-11-22T09:21:37;0.90;49.10
29403;DHT22;16382;59.942;30.472;2023-11-22T09:24:07;0.00;50.70
29403;DHT22;16382;59.942;30.472;2023-11-22T09:26:37;-0.50;52.30
29403;DHT22;16382;59.942;30.472;2023-11-22T09:29:09;-0.90;53.90
29403;DHT22;16382;59.942;30.472;2023-11-22T09:31:41;-1.20;54.90
29403;DHT22;16382;59.942;30.472;2023-11-22T09:34:12;-1.40;55.30
29403;DHT22;16382;59.942;30.472;2023-11-22T09:36:41;-1.50;55.60
29403;DHT22;16382;59.942;30.472;2023-11-22T09:39:09;-1.80;55.70
29403;DHT22;16382;59.942;30.472;2023-11-22T09:41:38;-2.00;56.00
29403;DHT22;16382;59.942;30.472;2023-11-22T09:44:06;-2.10;56.80
29403;DHT22;16382;59.942;30.472;2023-11-22T09:46:36;-1.90;56.80
29403;DHT22;16382;59.942;30.472;2023-11-22T09:49:09;-2.00;57.40
29403;DHT22;16382;59.942;30.472;2023-11-22T09:51:41;-2.00;57.10
29403;DHT22;16382;59.942;30.472;2023-11-22T09:54:10;-2.10;57.00
29403;DHT22;16382;59.942;30.472;2023-11-22T09:56:40;-2.20;57.40
29403;DHT22;16382;59.942;30.472;2023-11-22T09:59:23;-2.40;57.50
29403;DHT22;16382;59.942;30.472;2023-11-22T10:02:00;-2.50;58.20
29403;DHT22;16382;59.942;30.472;2023-11-22T10:04:31;-2.30;57.80
29403;DHT22;16382;59.942;30.472;2023-11-22T10:07:01;-2.30;57.40
29403;DHT22;16382;59.942;30.472;2023-11-22T10:09:29;-2.40;57.40
29403;DHT22;16382;59.942;30.472;2023-11-22T10:12:01;-2.50;57.80
29403;DHT22;16382;59.942;30.472;2023-11-22T10:14:30;-2.60;58.00
29403;DHT22;16382;59.942;30.472;2023-11-22T10:17:01;-2.70;58.30
29403;DHT22;16382;59.942;30.472;2023-11-22T10:19:30;-2.80;58.70
29403;DHT22;16382;59.942;30.472;2023-11-22T10:22:02;-2.70;58.60
29403;DHT22;16382;59.942;30.472;2023-11-22T10:24:31;-2.80;58.60
29403;DHT22;16382;59.942;30.472;2023-11-22T10:26:59;-3.00;58.80
29403;DHT22;16382;59.942;30.472;2023-11-22T10:29:27;-3.10;59.10
29403;DHT22;16382;59.942;30.472;2023-11-22T10:31:55;-3.10;59.40
29403;DHT22;16382;59.942;30.472;2023-11-22T10:34:24;-3.10;59.50
29403;DHT22;16382;59.942;30.472;2023-11-22T10:36:57;-3.20;59.40
29403;DHT22;16382;59.942;30.472;2023-11-22T10:39:25;-3.20;59.70
29403;DHT22;16382;59.942;30.472;2023-11-22T10:41:53;-3.20;59.40
29403;DHT22;16382;59.942;30.472;2023-11-22T10:44:21;-3.20;59.10
29403;DHT22;16382;59.942;30.472;2023-11-22T10:46:49;-3.30;59.10
29403;DHT22;16382;59.942;30.472;2023-11-22T10:49:20;-3.20;59.00
29403;DHT22;16382;59.942;30.472;2023-11-22T10:51:51;-3.20;58.60
29403;DHT22;16382;59.942;30.472;2023-11-22T10:54:22;-3.20;58.50
29403;DHT22;16382;59.942;30.472;2023-11-22T10:59:43;-3.00;58.40
29403;DHT22;16382;59.942;30.472;2023-11-22T11:02:19;-2.90;57.90
29403;DHT22;16382;59.942;30.472;2023-11-22T11:04:55;-2.90;57.80
29403;DHT22;16382;59.942;30.472;2023-11-22T11:07:40;-2.80;58.00
29403;DHT22;16382;59.942;30.472;2023-11-22T11:10:12;-2.80;57.80
29403;DHT22;16382;59.942;30.472;2023-11-22T11:12:41;-2.70;57.50
29403;DHT22;16382;59.942;30.472;2023-11-22T11:15:09;-2.80;57.30
29403;DHT22;16382;59.942;30.472;2023-11-22T11:17:37;-2.80;57.20
29403;DHT22;16382;59.942;30.472;2023-11-22T11:20:06;-2.80;56.90
29403;DHT22;16382;59.942;30.472;2023-11-22T11:22:37;-2.80;56.50
29403;DHT22;16382;59.942;30.472;2023-11-22T11:25:05;-2.80;56.50
29403;DHT22;16382;59.942;30.472;2023-11-22T11:27:35;-2.70;56.20
29403;DHT22;16382;59.942;30.472;2023-11-22T11:33:11;-2.60;56.70
29403;DHT22;16382;59.942;30.472;2023-11-22T11:35:45;-2.80;56.50
29403;DHT22;16382;59.942;30.472;2023-11-22T11:38:21;-2.80;56.40
29403;DHT22;16382;59.942;30.472;2023-11-22T11:40:55;-2.90;57.00
29403;DHT22;16382;59.942;30.472;2023-11-22T11:43:42;-2.90;57.10
29403;DHT22;16382;59.942;30.472;2023-11-22T11:46:15;-2.90;57.00
29403;DHT22;16382;59.942;30.472;2023-11-22T11:48:44;-3.00;57.10
29403;DHT22;16382;59.942;30.472;2023-11-22T11:51:14;-3.10;57.30
29403;DHT22;16382;59.942;30.472;2023-11-22T11:53:42;-3.10;57.30
29403;DHT22;16382;59.942;30.472;2023-11-22T11:56:10;-3.10;58.00
29403;DHT22;16382;59.942;30.472;2023-11-22T11:59:09;-3.00;57.90
29403;DHT22;16382;59.942;30.472;2023-11-22T12:01:37;-3.00;57.30
29403;DHT22;16382;59.942;30.472;2023-11-22T12:04:06;-3.00;57.30
29403;DHT22;16382;59.942;30.472;2023-11-22T12:06:34;-2.90;57.40
29403;DHT22;16382;59.942;30.472;2023-11-22T12:09:07;-2.90;57.30
29403;DHT22;16382;59.942;30.472;2023-11-22T12:11:35;-2.80;57.00
29403;DHT22;16382;59.942;30.472;2023-11-22T12:14:18;-2.90;57.00
29403;DHT22;16382;59.942;30.472;2023-11-22T12:16:47;-2.80;57.30
29403;DHT22;16382;59.942;30.472;2023-11-22T12:20:20;-2.70;57.30
29403;DHT22;16382;59.942;30.472;2023-11-22T12:23:51;-2.70;57.30
29403;DHT22;16382;59.942;30.472;2023-11-22T12:26:44;-2.70;57.50
29403;DHT22;16382;59.942;30.472;2023-11-22T12:29:16;-2.70;57.90
29403;DHT22;16382;59.942;30.472;2023-11-22T12:31:51;-2.80;58.50
29403;DHT22;16382;59.942;30.472;2023-11-22T12:34:22;-2.60;57.90
29403;DHT22;16382;59.942;30.472;2023-11-22T12:36:53;-2.70;57.80
29403;DHT22;16382;59.942;30.472;2023-11-22T12:39:27;-2.70;57.90
29403;DHT22;16382;59.942;30.472;2023-11-22T12:41:58;-2.70;58.00
29403;DHT22;16382;59.942;30.472;2023-11-22T12:44:26;-2.60;57.60
29403;DHT22;16382;59.942;30.472;2023-11-22T12:47:14;-2.70;57.70
29403;DHT22;16382;59.942;30.472;2023-11-22T12:49:49;-2.70;58.00
29403;DHT22;16382;59.942;30.472;2023-11-22T12:52:57;-2.70;58.20
29403;DHT22;16382;59.942;30.472;2023-11-22T12:57:19;-2.60;58.20
29403;DHT22;16382;59.942;30.472;2023-11-22T12:58:59;-2.60;58.10
29403;DHT22;16382;59.942;30.472;2023-11-22T13:01:53;-2.70;57.90
29403;DHT22;16382;59.942;30.472;2023-11-22T13:04:33;-2.70;58.50
29403;DHT22;16382;59.942;30.472;2023-11-22T13:07:23;-2.60;59.00
29403;DHT22;16382;59.942;30.472;2023-11-22T13:09:55;-2.80;58.60
29403;DHT22;16382;59.942;30.472;2023-11-22T13:17:00;-2.70;59.10
29403;DHT22;16382;59.942;30.472;2023-11-22T13:23:35;-3.00;59.30
29403;DHT22;16382;59.942;30.472;2023-11-22T13:39:27;-2.80;59.90
29403;DHT22;16382;59.942;30.472;2023-11-22T13:44:59;-2.80;59.60
29403;DHT22;16382;59.942;30.472;2023-11-22T13:46:10;-2.70;59.30
29403;DHT22;16382;59.942;30.472;2023-11-22T13:49:25;-2.70;59.50
29403;DHT22;16382;59.942;30.472;2023-11-22T13:52:33;-2.70;59.40
29403;DHT22;16382;59.942;30.472;2023-11-22T14:15:42;-2.50;59.80
29403;DHT22;16382;59.942;30.472;2023-11-22T14:19:14;-2.50;59.90
29403;DHT22;16382;59.942;30.472;2023-11-22T14:22:52;-2.30;59.70
29403;DHT22;16382;59.942;30.472;2023-11-22T14:26:40;-2.40;59.70
29403;DHT22;16382;59.942;30.472;2023-11-22T14:37:17;-2.40;59.20
29403;DHT22;16382;59.942;30.472;2023-11-22T14:40:20;-2.30;59.30
29403;DHT22;16382;59.942;30.472;2023-11-22T14:43:55;-2.40;59.30
29403;DHT22;16382;59.942;30.472;2023-11-22T14:49:04;-2.50;59.30
29403;DHT22;16382;59.942;30.472;2023-11-22T14:51:44;-2.70;59.40
29403;DHT22;16382;59.942;30.472;2023-11-22T14:59:34;-2.90;60.00
29403;DHT22;16382;59.942;30.472;2023-11-22T15:06:12;-3.10;61.20
29403;DHT22;16382;59.942;30.472;2023-11-22T15:08:40;-3.20;61.80
29403;DHT22;16382;59.942;30.472;2023-11-22T15:11:36;-3.30;62.00
29403;DHT22;16382;59.942;30.472;2023-11-22T15:15:14;-3.20;62.00
29403;DHT22;16382;59.942;30.472;2023-11-22T15:18:04;-3.30;62.30
29403;DHT22;16382;59.942;30.472;2023-11-22T15:20:45;-3.40;62.40
29403;DHT22;16382;59.942;30.472;2023-11-22T15:23:24;-3.40;62.50
29403;DHT22;16382;59.942;30.472;2023-11-22T15:25:54;-3.40;62.90
29403;DHT22;16382;59.942;30.472;2023-11-22T15:28:26;-3.40;63.00
29403;DHT22;16382;59.942;30.472;2023-11-22T15:30:55;-3.50;63.30
29403;DHT22;16382;59.942;30.472;2023-11-22T15:33:26;-3.40;63.80
29403;DHT22;16382;59.942;30.472;2023-11-22T15:35:54;-3.40;63.70
29403;DHT22;16382;59.942;30.472;2023-11-22T15:38:22;-3.40;64.00
29403;DHT22;16382;59.942;30.472;2023-11-22T15:41:00;-3.30;64.00
29403;DHT22;16382;59.942;30.472;2023-11-22T15:43:56;-3.10;63.90
29403;DHT22;16382;59.942;30.472;2023-11-22T15:46:31;-3.00;63.50
29403;DHT22;16382;59.942;30.472;2023-11-22T15:48:58;-3.00;63.40
29403;DHT22;16382;59.942;30.472;2023-11-22T15:51:29;-2.90;63.30
29403;DHT22;16382;59.942;30.472;2023-11-22T15:54:04;-2.90;63.20
29403;DHT22;16382;59.942;30.472;2023-11-22T15:57:08;-2.90;63.00
29403;DHT22;16382;59.942;30.472;2023-11-22T15:59:44;-2.90;63.00
29403;DHT22;16382;59.942;30.472;2023-11-22T16:02:18;-2.80;63.10
29403;DHT22;16382;59.942;30.472;2023-11-22T16:04:46;-2.90;63.20
29403;DHT22;16382;59.942;30.472;2023-11-22T16:07:15;-2.90;63.30
29403;DHT22;16382;59.942;30.472;2023-11-22T16:09:43;-2.90;63.60
29403;DHT22;16382;59.942;30.472;2023-11-22T16:12:13;-2.80;63.50
29403;DHT22;16382;59.942;30.472;2023-11-22T16:14:45;-2.90;63.40
29403;DHT22;16382;59.942;30.472;2023-11-22T16:17:13;-2.90;63.80
29403;DHT22;16382;59.942;30.472;2023-11-22T16:19:45;-3.00;64.20
29403;DHT22;16382;59.942;30.472;2023-11-22T16:22:15;-3.00;64.30
29403;DHT22;16382;59.942;30.472;2023-11-22T16:24:44;-3.00;64.50
29403;DHT22;16382;59.942;30.472;2023-11-22T16:27:12;-3.00;65.00
29403;DHT22;16382;59.942;30.472;2023-11-22T16:29:42;-3.00;65.10
29403;DHT22;16382;59.942;30.472;2023-11-22T16:32:14;-2.90;64.90
29403;DHT22;16382;59.942;30.472;2023-11-22T16:34:45;-2.90;64.90
29403;DHT22;16382;59.942;30.472;2023-11-22T16:37:18;-2.90;65.00
29403;DHT22;16382;59.942;30.472;2023-11-22T16:39:47;-2.90;65.10
29403;DHT22;16382;59.942;30.472;2023-11-22T16:42:19;-2.80;65.00
29403;DHT22;16382;59.942;30.472;2023-11-22T16:45:00;-2.70;65.20
29403;DHT22;16382;59.942;30.472;2023-11-22T16:47:32;-2.60;65.20
29403;DHT22;16382;59.942;30.472;2023-11-22T16:50:01;-2.60;64.80
29403;DHT22;16382;59.942;30.472;2023-11-22T16:52:33;-2.50;65.00
29403;DHT22;16382;59.942;30.472;2023-11-22T16:55:04;-2.50;64.80
29403;DHT22;16382;59.942;30.472;2023-11-22T16:57:33;-2.50;64.90
29403;DHT22;16382;59.942;30.472;2023-11-22T17:00:02;-2.40;64.80
29403;DHT22;16382;59.942;30.472;2023-11-22T17:02:35;-2.50;64.90